Time;durP1;ratioP1;P1;durP2;ratioP2;P2;SDS_P1;SDS_P2;PMS_P1;PMS_P2;Temp;Humidity;BMP_temperature;BMP_pressure;BME280_temperature;BME280_humidity;BME280_pressure;Samples;Min_cycle;Max_cycle;Signal;HPM_P1;HPM_P2
2022/03/07 00:02:20;;;;;;;488.47;49.17;;;-0.10;99.90;;;;;;4938783;29;20481;-77
2022/03/07 00:04:49;;;;;;;1527.33;128.00;;;-0.10;99.90;;;;;;4941119;29;20561;-77
2022/03/07 00:07:17;;;;;;;347.33;39.27;;;-0.10;99.90;;;;;;4957748;28;20447;-77
2022/03/07 00:09:45;;;;;;;923.87;85.87;;;-0.10;99.90;;;;;;4957804;28;20932;-77
2022/03/07 00:12:14;;;;;;;1869.40;123.93;;;-0.10;99.90;;;;;;4954669;29;20488;-77
2022/03/07 00:14:42;;;;;;;430.97;57.93;;;-0.10;99.90;;;;;;4951098;28;21047;-77
2022/03/07 00:17:11;;;;;;;701.60;58.23;;;-0.20;99.90;;;;;;4956615;28;20638;-77
2022/03/07 00:19:39;;;;;;;280.27;34.50;;;-0.20;99.90;;;;;;4956278;29;20477;-77
2022/03/07 00:22:08;;;;;;;1777.00;119.10;;;-0.20;99.90;;;;;;4956320;28;20506;-78
2022/03/07 00:24:36;;;;;;;1999.90;162.47;;;-0.20;99.90;;;;;;4956107;28;20507;-77
2022/03/07 00:27:05;;;;;;;1630.50;112.20;;;-0.20;99.90;;;;;;4956167;28;20827;-77
2022/03/07 00:29:33;;;;;;;1890.33;146.47;;;-0.20;99.90;;;;;;4956301;28;20798;-77
2022/03/07 00:32:01;;;;;;;1552.07;129.73;;;-0.20;99.90;;;;;;4938791;28;20562;-77
2022/03/07 00:34:31;;;;;;;1999.90;214.83;;;-0.10;99.90;;;;;;4936763;29;20507;-78
2022/03/07 00:36:59;;;;;;;558.73;47.47;;;-0.10;99.90;;;;;;4951824;29;20824;-77
2022/03/07 00:39:27;;;;;;;1966.43;184.70;;;-0.10;99.90;;;;;;4955925;28;20446;-77
2022/03/07 00:41:56;;;;;;;921.57;74.93;;;-0.10;99.90;;;;;;4943346;29;20476;-77
2022/03/07 00:44:25;;;;;;;639.93;51.00;;;-0.10;99.90;;;;;;4945663;29;20986;-78
2022/03/07 00:46:53;;;;;;;915.23;73.73;;;-0.10;99.90;;;;;;4957305;28;20786;-77
2022/03/07 00:49:21;;;;;;;1999.90;221.53;;;-0.10;99.90;;;;;;4957381;28;20481;-77
2022/03/07 00:51:51;;;;;;;1999.90;223.10;;;-0.20;99.90;;;;;;4955775;28;20454;-76
2022/03/07 00:54:20;;;;;;;516.77;52.83;;;-0.20;99.90;;;;;;4955754;28;20481;-77
2022/03/07 00:56:48;;;;;;;1999.90;165.53;;;-0.20;99.90;;;;;;4953578;28;20553;-77
2022/03/07 00:59:16;;;;;;;1999.90;192.23;;;-0.20;99.90;;;;;;4955646;28;20443;-77
2022/03/07 01:01:45;;;;;;;1310.53;103.27;;;-0.20;99.90;;;;;;4938398;28;20561;-77
2022/03/07 01:04:16;;;;;;;1999.90;189.73;;;-0.20;99.90;;;;;;4936338;29;20472;-77
2022/03/07 01:06:44;;;;;;;513.17;55.80;;;-0.20;99.90;;;;;;4937401;29;20945;-78
2022/03/07 01:09:18;;;;;;;404.07;69.57;;;-0.20;99.90;;;;;;4935950;29;20534;-77
2022/03/07 01:11:46;;;;;;;1715.53;125.17;;;-0.20;99.90;;;;;;4936101;28;20559;-77
2022/03/07 01:14:17;;;;;;;1459.80;153.90;;;-0.20;99.90;;;;;;4943114;28;20478;-77
2022/03/07 01:16:46;;;;;;;453.57;46.33;;;-0.30;99.90;;;;;;4955266;28;20960;-77
2022/03/07 01:19:14;;;;;;;1996.40;173.40;;;-0.30;99.90;;;;;;4952327;28;20466;-77
2022/03/07 01:21:43;;;;;;;572.73;62.07;;;-0.30;99.90;;;;;;4955022;29;20529;-77
2022/03/07 01:24:12;;;;;;;565.80;56.97;;;-0.30;99.90;;;;;;4954959;28;20470;-77
2022/03/07 01:26:42;;;;;;;1400.80;106.57;;;-0.30;99.90;;;;;;4955285;28;20968;-77
2022/03/07 01:29:10;;;;;;;499.70;57.23;;;-0.30;99.90;;;;;;4955036;28;20462;-77
2022/03/07 01:31:38;;;;;;;1466.43;145.40;;;-0.30;99.90;;;;;;4955130;28;20454;-77
2022/03/07 01:34:07;;;;;;;1999.90;241.83;;;-0.40;99.90;;;;;;4954916;28;20494;-78
2022/03/07 01:36:35;;;;;;;1299.33;119.27;;;-0.40;99.90;;;;;;4956344;28;20865;-78
2022/03/07 01:39:04;;;;;;;156.07;29.43;;;-0.40;99.90;;;;;;4957038;28;20474;-77
2022/03/07 01:41:32;;;;;;;1999.90;164.53;;;-0.40;99.90;;;;;;4956004;28;20814;-77
2022/03/07 01:44:02;;;;;;;1800.40;128.50;;;-0.40;99.90;;;;;;4954941;28;20892;-77
2022/03/07 01:46:31;;;;;;;545.93;56.87;;;-0.40;99.90;;;;;;4952777;28;20487;-77
2022/03/07 01:49:00;;;;;;;1999.90;183.27;;;-0.50;99.90;;;;;;4954833;28;20983;-77
2022/03/07 01:51:29;;;;;;;361.53;53.83;;;-0.50;99.90;;;;;;4954737;28;20451;-77
2022/03/07 01:53:58;;;;;;;1904.40;154.70;;;-0.50;99.90;;;;;;4954520;28;20474;-77
2022/03/07 01:56:30;;;;;;;459.50;58.67;;;-0.50;99.90;;;;;;4954900;29;20461;-77
2022/03/07 01:58:58;;;;;;;1763.83;169.03;;;-0.50;99.90;;;;;;4954506;28;21030;-77
2022/03/07 02:01:28;;;;;;;1922.50;159.87;;;-0.50;99.90;;;;;;4948091;28;20526;-77
2022/03/07 02:03:56;;;;;;;1909.43;183.97;;;-0.60;99.90;;;;;;4935208;29;20571;-77
2022/03/07 02:06:26;;;;;;;1999.90;235.77;;;-0.60;99.90;;;;;;4935566;29;20463;-77
2022/03/07 02:08:56;;;;;;;1253.53;88.63;;;-0.60;99.90;;;;;;4936793;28;20463;-77
2022/03/07 02:11:34;;;;;;;1132.93;75.00;;;-0.60;99.90;;;;;;4935412;29;20538;-77
2022/03/07 02:14:15;;;;;;;1955.27;163.40;;;-0.60;99.90;;;;;;4936866;29;20482;-77
2022/03/07 02:16:47;;;;;;;1007.43;75.00;;;-0.60;99.90;;;;;;4953916;29;20462;-77
2022/03/07 02:19:16;;;;;;;372.93;37.10;;;-0.70;99.90;;;;;;4954267;29;20449;-77
2022/03/07 02:21:47;;;;;;;770.07;75.77;;;-0.70;99.90;;;;;;4953639;29;20474;-77
2022/03/07 02:24:43;;;;;;;656.70;56.37;;;-0.70;99.90;;;;;;4955195;28;20482;-77
2022/03/07 02:27:13;;;;;;;1249.87;85.43;;;-0.70;99.90;;;;;;4951772;28;20466;-77
2022/03/07 02:29:41;;;;;;;1999.90;159.87;;;-0.70;99.90;;;;;;4951343;28;20453;-77
2022/03/07 02:32:17;;;;;;;1136.83;87.97;;;-0.70;99.90;;;;;;4951748;29;20462;-77
2022/03/07 02:34:48;;;;;;;1999.90;193.27;;;-0.80;99.90;;;;;;4954134;28;20479;-77
2022/03/07 02:37:18;;;;;;;1106.23;93.00;;;-0.80;99.90;;;;;;4936394;29;20470;-77
2022/03/07 02:39:54;;;;;;;391.17;47.53;;;-0.80;99.90;;;;;;4935292;29;20440;-77
2022/03/07 02:42:40;;;;;;;1848.63;100.17;;;-0.80;99.90;;;;;;4934873;29;20463;-77
2022/03/07 02:45:10;;;;;;;317.23;33.47;;;-0.80;99.90;;;;;;4940619;29;20469;-77
2022/03/07 02:47:38;;;;;;;580.80;43.17;;;-0.80;99.90;;;;;;4954113;28;20577;-77
2022/03/07 02:50:08;;;;;;;549.47;60.17;;;-0.90;99.90;;;;;;4954122;29;21011;-77
2022/03/07 02:52:37;;;;;;;1694.80;135.97;;;-0.90;99.90;;;;;;4955236;28;20450;-77
2022/03/07 02:55:08;;;;;;;1925.57;170.07;;;-0.90;99.90;;;;;;4954067;28;20481;-77
2022/03/07 02:57:36;;;;;;;1854.23;146.40;;;-0.90;99.90;;;;;;4954450;28;20798;-77
2022/03/07 03:00:06;;;;;;;521.17;66.80;;;-0.90;99.90;;;;;;4943723;28;20446;-77
2022/03/07 03:02:34;;;;;;;459.30;63.53;;;-0.90;99.90;;;;;;4955376;28;20470;-78
2022/03/07 03:05:03;;;;;;;1273.43;87.13;;;-0.90;99.90;;;;;;4940020;29;20443;-77
2022/03/07 03:07:31;;;;;;;715.90;71.00;;;-1.00;99.90;;;;;;4941558;29;20451;-77
2022/03/07 03:10:00;;;;;;;563.47;54.77;;;-1.00;99.90;;;;;;4938848;28;20444;-77
2022/03/07 03:12:30;;;;;;;261.80;36.57;;;-1.00;99.90;;;;;;4946120;29;20452;-77
2022/03/07 03:14:58;;;;;;;1681.93;116.70;;;-1.00;99.90;;;;;;4948203;29;20475;-77
2022/03/07 03:17:27;;;;;;;588.00;71.97;;;-1.00;99.90;;;;;;4949948;29;20928;-77
2022/03/07 03:19:55;;;;;;;1965.37;131.27;;;-1.00;99.90;;;;;;4968875;28;20454;-77
2022/03/07 03:22:23;;;;;;;574.07;47.50;;;-1.00;99.90;;;;;;4969573;28;20474;-77
2022/03/07 03:24:54;;;;;;;448.20;45.40;;;-1.00;99.90;;;;;;4973609;28;20454;-77
2022/03/07 03:27:22;;;;;;;561.37;62.20;;;-1.10;99.90;;;;;;4961581;28;20454;-77
2022/03/07 03:29:52;;;;;;;1044.30;67.03;;;-1.10;99.90;;;;;;4960392;28;20459;-77
2022/03/07 03:32:20;;;;;;;659.47;53.43;;;-1.10;99.90;;;;;;4960998;29;20458;-77
2022/03/07 03:34:49;;;;;;;1083.87;76.17;;;-1.10;99.90;;;;;;4967723;29;20478;-77
2022/03/07 03:37:17;;;;;;;522.07;72.93;;;-1.10;99.90;;;;;;4960501;28;20454;-77
2022/03/07 03:39:45;;;;;;;1571.30;123.57;;;-1.10;99.90;;;;;;4961606;28;20446;-77
2022/03/07 03:42:14;;;;;;;396.97;35.90;;;-1.10;99.90;;;;;;4963666;28;20457;-77
2022/03/07 03:44:42;;;;;;;772.93;77.70;;;-1.00;99.90;;;;;;4958305;28;20498;-78
2022/03/07 03:47:12;;;;;;;422.27;67.10;;;-1.00;99.90;;;;;;4959136;28;20497;-77
2022/03/07 03:49:40;;;;;;;1190.80;117.80;;;-1.00;99.90;;;;;;4960142;28;20457;-77
2022/03/07 03:52:09;;;;;;;945.93;76.67;;;-1.00;99.90;;;;;;4955983;28;20466;-77
2022/03/07 03:54:37;;;;;;;484.33;58.37;;;-1.00;99.90;;;;;;4940455;28;20724;-78
2022/03/07 03:57:06;;;;;;;1999.90;199.07;;;-0.90;99.90;;;;;;4937846;29;20462;-78
2022/03/07 03:59:35;;;;;;;1171.57;97.37;;;-0.90;99.90;;;;;;4937713;29;20443;-78
2022/03/07 04:02:05;;;;;;;1419.60;141.87;;;-0.90;99.90;;;;;;4937848;29;20530;-77
2022/03/07 04:04:35;;;;;;;1966.20;206.47;;;-0.90;99.90;;;;;;4937455;29;20475;-78
2022/03/07 04:07:07;;;;;;;1999.90;251.83;;;-0.90;99.90;;;;;;4937718;29;20457;-77
2022/03/07 04:09:35;;;;;;;1999.90;249.47;;;-0.90;99.90;;;;;;4937415;28;20455;-78
2022/03/07 04:12:04;;;;;;;1735.80;211.43;;;-0.80;99.90;;;;;;4954159;29;20473;-77
2022/03/07 04:14:32;;;;;;;484.17;65.47;;;-0.80;99.90;;;;;;4956542;28;20470;-77
2022/03/07 04:17:00;;;;;;;493.20;62.47;;;-0.80;99.90;;;;;;4957737;29;20506;-78
2022/03/07 04:19:29;;;;;;;901.63;95.50;;;-0.70;99.90;;;;;;4957999;28;20549;-78
2022/03/07 04:21:59;;;;;;;1885.57;224.67;;;-0.70;99.90;;;;;;4937745;28;21068;-78
2022/03/07 04:24:30;;;;;;;1999.90;250.97;;;-0.70;99.90;;;;;;4953260;28;20487;-78
2022/03/07 04:26:59;;;;;;;1999.90;241.17;;;-0.70;99.90;;;;;;4963319;28;20446;-78
2022/03/07 04:29:27;;;;;;;1999.90;303.80;;;-0.60;99.90;;;;;;4956244;28;20459;-78
2022/03/07 04:31:55;;;;;;;281.80;52.90;;;-0.60;99.90;;;;;;4957885;28;20470;-78
2022/03/07 04:34:24;;;;;;;1999.90;298.53;;;-0.60;99.90;;;;;;4953720;28;21039;-78
2022/03/07 04:36:52;;;;;;;1526.30;185.03;;;-0.50;99.90;;;;;;4956064;28;20541;-78
2022/03/07 04:39:23;;;;;;;1785.40;190.50;;;-0.50;99.90;;;;;;4956047;28;20498;-78
2022/03/07 04:41:52;;;;;;;1999.90;244.83;;;-0.50;99.90;;;;;;4953602;28;20472;-78
2022/03/07 04:44:20;;;;;;;1999.90;230.90;;;-0.50;99.90;;;;;;4936552;29;21000;-78
2022/03/07 04:46:49;;;;;;;334.67;43.07;;;-0.40;99.90;;;;;;4936808;28;20530;-78
2022/03/07 04:49:17;;;;;;;286.13;50.37;;;-0.40;99.90;;;;;;4936811;28;20918;-78
2022/03/07 04:51:46;;;;;;;438.47;52.67;;;-0.40;99.90;;;;;;4936871;29;20451;-78
2022/03/07 04:54:15;;;;;;;1999.90;256.20;;;-0.30;99.90;;;;;;4938786;29;20472;-78
2022/03/07 04:56:47;;;;;;;595.57;82.93;;;-0.30;99.90;;;;;;4945388;29;20458;-78
2022/03/07 04:59:15;;;;;;;1698.67;177.50;;;-0.20;99.90;;;;;;4943210;29;20946;-78
2022/03/07 05:01:44;;;;;;;1580.37;170.07;;;-0.20;99.90;;;;;;4937713;29;20439;-78
2022/03/07 05:04:12;;;;;;;783.80;106.57;;;-0.20;99.90;;;;;;4936435;29;20479;-78
2022/03/07 05:06:40;;;;;;;1999.90;228.50;;;-0.20;99.90;;;;;;4936381;29;20507;-78
2022/03/07 05:09:09;;;;;;;1280.13;141.87;;;-0.10;99.90;;;;;;4937909;29;20550;-78
2022/03/07 05:11:37;;;;;;;467.97;41.20;;;-0.10;99.90;;;;;;4936340;29;20459;-78
2022/03/07 05:14:07;;;;;;;293.40;47.90;;;-0.10;99.90;;;;;;4936189;29;20479;-78
2022/03/07 05:16:35;;;;;;;1697.30;183.47;;;0.00;99.90;;;;;;4936159;29;20455;-78
2022/03/07 05:19:04;;;;;;;1821.80;191.07;;;-0.10;99.90;;;;;;4937902;28;20835;-78
2022/03/07 05:21:32;;;;;;;272.37;42.10;;;-0.10;99.90;;;;;;4936539;29;20460;-78
2022/03/07 05:24:01;;;;;;;418.07;50.77;;;-0.10;99.90;;;;;;4936007;28;20526;-78
2022/03/07 05:26:29;;;;;;;448.10;49.53;;;-0.10;99.90;;;;;;4944149;29;20547;-78
2022/03/07 05:28:57;;;;;;;371.63;47.07;;;-0.10;99.90;;;;;;4956343;28;20458;-78
2022/03/07 05:31:27;;;;;;;464.97;38.70;;;-0.10;99.90;;;;;;4940187;28;20510;-78
2022/03/07 05:33:55;;;;;;;328.00;58.83;;;0.00;99.90;;;;;;4935616;28;20471;-78
2022/03/07 05:36:24;;;;;;;327.50;49.87;;;0.00;99.90;;;;;;4935942;29;20506;-78
2022/03/07 05:38:52;;;;;;;511.97;68.97;;;0.00;99.90;;;;;;4937307;29;20455;-78
2022/03/07 05:41:20;;;;;;;373.97;56.87;;;0.00;99.90;;;;;;4936219;28;20480;-78
2022/03/07 05:43:49;;;;;;;422.60;55.87;;;0.00;99.90;;;;;;4936147;29;20484;-78
2022/03/07 05:46:17;;;;;;;230.77;33.10;;;0.00;99.90;;;;;;4945191;29;20450;-78
2022/03/07 05:49:07;;;;;;;377.13;52.20;;;-0.10;99.90;;;;;;4954949;28;20521;-78
2022/03/07 05:52:23;;;;;;;312.87;46.13;;;0.00;99.90;;;;;;4937415;29;20474;-78
2022/03/07 05:55:08;;;;;;;1191.10;122.43;;;-0.10;99.90;;;;;;4935172;28;20554;-78
2022/03/07 05:57:37;;;;;;;393.50;50.80;;;0.00;99.90;;;;;;4944708;29;20455;-78
2022/03/07 06:00:08;;;;;;;500.30;55.53;;;-0.10;99.90;;;;;;4945100;29;20458;-78
2022/03/07 06:02:36;;;;;;;566.37;52.60;;;-0.10;99.90;;;;;;4951113;28;20451;-78
2022/03/07 06:05:07;;;;;;;665.57;77.60;;;-0.10;99.90;;;;;;4939759;29;20486;-78
2022/03/07 06:07:36;;;;;;;738.97;81.73;;;-0.10;99.90;;;;;;4939785;28;20464;-78
2022/03/07 06:10:06;;;;;;;709.47;62.40;;;-0.10;99.90;;;;;;4936861;29;21032;-78
2022/03/07 06:12:34;;;;;;;1385.13;143.27;;;-0.10;99.90;;;;;;4935367;28;20515;-79
2022/03/07 06:15:05;;;;;;;602.50;50.47;;;0.00;99.90;;;;;;4935331;29;20455;-78
2022/03/07 06:17:33;;;;;;;548.83;77.30;;;0.00;99.90;;;;;;4936750;29;20839;-78
2022/03/07 06:20:02;;;;;;;332.43;40.37;;;0.00;99.90;;;;;;4936442;29;20458;-78
2022/03/07 06:22:31;;;;;;;538.03;63.67;;;0.00;99.90;;;;;;4935063;29;20490;-77
2022/03/07 06:25:00;;;;;;;373.60;42.27;;;0.00;99.90;;;;;;4935196;28;20920;-78
2022/03/07 06:27:28;;;;;;;1013.43;99.33;;;0.00;99.90;;;;;;4936543;29;20440;-77
2022/03/07 06:29:56;;;;;;;664.07;50.97;;;0.00;99.90;;;;;;4935188;29;20465;-78
2022/03/07 06:32:24;;;;;;;371.90;47.83;;;-0.10;99.90;;;;;;4936276;29;20539;-78
2022/03/07 06:34:53;;;;;;;432.33;55.90;;;-0.10;99.90;;;;;;4936104;29;20488;-78
2022/03/07 06:37:21;;;;;;;1624.30;178.60;;;-0.10;99.90;;;;;;4935184;29;20538;-77
2022/03/07 06:39:51;;;;;;;504.87;61.03;;;-0.10;99.90;;;;;;4935206;28;20898;-77
2022/03/07 06:42:19;;;;;;;708.67;49.50;;;-0.10;99.90;;;;;;4935422;29;20980;-77
2022/03/07 06:44:47;;;;;;;654.80;57.90;;;-0.10;99.90;;;;;;4936213;29;20541;-77
2022/03/07 06:47:16;;;;;;;1506.30;156.20;;;-0.10;99.90;;;;;;4935070;29;20444;-77
2022/03/07 06:49:47;;;;;;;643.20;88.80;;;-0.10;99.90;;;;;;4934973;28;20455;-78
2022/03/07 06:52:15;;;;;;;345.17;46.47;;;0.00;99.90;;;;;;4936751;29;20427;-77
2022/03/07 06:54:43;;;;;;;913.73;88.33;;;0.00;99.90;;;;;;4935090;29;20475;-77
2022/03/07 06:57:13;;;;;;;832.60;95.93;;;0.00;99.90;;;;;;4934941;29;20459;-78
2022/03/07 06:59:41;;;;;;;370.87;51.13;;;0.00;99.90;;;;;;4936039;29;20447;-77
2022/03/07 07:02:09;;;;;;;577.50;82.07;;;0.10;99.90;;;;;;4936705;29;20471;-77
2022/03/07 07:04:38;;;;;;;434.37;56.73;;;0.10;99.90;;;;;;4934936;28;20851;-78
2022/03/07 07:07:06;;;;;;;428.73;56.90;;;0.10;99.90;;;;;;4936584;29;20490;-77
2022/03/07 07:09:35;;;;;;;605.60;61.00;;;0.20;99.90;;;;;;4938742;29;20456;-77
2022/03/07 07:12:04;;;;;;;486.33;77.50;;;0.20;99.90;;;;;;4939995;29;20473;-77
2022/03/07 07:14:33;;;;;;;453.37;88.63;;;0.10;99.90;;;;;;4938416;28;20559;-77
2022/03/07 07:17:01;;;;;;;626.90;69.23;;;0.20;99.90;;;;;;4939961;29;20873;-78
2022/03/07 07:19:30;;;;;;;333.67;47.87;;;0.20;99.90;;;;;;4939686;28;20435;-77
2022/03/07 07:21:59;;;;;;;586.43;69.33;;;0.20;99.90;;;;;;4938402;28;20868;-77
2022/03/07 07:24:27;;;;;;;725.30;106.10;;;0.30;99.90;;;;;;4939798;29;20478;-77
2022/03/07 07:26:55;;;;;;;570.00;84.73;;;0.30;99.90;;;;;;4938109;28;20447;-78
2022/03/07 07:29:23;;;;;;;498.83;68.87;;;0.20;99.90;;;;;;4938303;28;20464;-77
2022/03/07 07:31:53;;;;;;;539.13;61.63;;;0.20;99.90;;;;;;4939547;29;20531;-77
2022/03/07 07:34:22;;;;;;;253.30;43.33;;;0.30;99.90;;;;;;4939460;29;20582;-77
2022/03/07 07:36:50;;;;;;;683.73;107.43;;;0.30;99.90;;;;;;4938389;29;20440;-77
2022/03/07 07:39:19;;;;;;;649.93;85.73;;;0.20;99.90;;;;;;4938131;28;20563;-77
2022/03/07 07:41:47;;;;;;;422.83;72.63;;;0.30;99.90;;;;;;4939398;29;20458;-78
2022/03/07 07:44:18;;;;;;;530.40;69.87;;;0.30;99.90;;;;;;4939250;29;20472;-77
2022/03/07 07:46:46;;;;;;;499.93;73.17;;;0.30;99.90;;;;;;4938138;29;20459;-77
2022/03/07 07:49:16;;;;;;;476.53;56.70;;;0.30;99.90;;;;;;4937943;29;20455;-77
2022/03/07 07:51:44;;;;;;;653.13;95.60;;;0.30;99.90;;;;;;4937832;29;20452;-77
2022/03/07 07:54:13;;;;;;;721.53;104.03;;;0.30;99.90;;;;;;4938931;29;20468;-77
2022/03/07 07:56:41;;;;;;;470.50;71.13;;;0.30;99.90;;;;;;4937946;29;20809;-78
2022/03/07 07:59:11;;;;;;;610.93;82.47;;;0.30;99.90;;;;;;4937609;28;20555;-77
2022/03/07 08:01:39;;;;;;;728.10;100.07;;;0.30;99.90;;;;;;4939032;29;20506;-77
2022/03/07 08:04:09;;;;;;;620.33;91.00;;;0.30;99.90;;;;;;4921870;29;20991;-77
2022/03/07 08:06:38;;;;;;;584.13;73.27;;;0.30;99.90;;;;;;4937667;29;20471;-77
2022/03/07 08:09:07;;;;;;;890.30;112.40;;;0.40;99.90;;;;;;4938799;29;20464;-78
2022/03/07 08:11:35;;;;;;;639.80;72.80;;;0.40;99.90;;;;;;4937737;29;20470;-77
2022/03/07 08:14:03;;;;;;;749.43;70.37;;;0.50;99.90;;;;;;4937283;28;20471;-77
2022/03/07 08:16:31;;;;;;;699.57;98.20;;;0.50;99.90;;;;;;4937703;28;20961;-77
2022/03/07 08:19:00;;;;;;;450.07;74.87;;;0.60;99.90;;;;;;4937795;29;20475;-77
2022/03/07 08:21:28;;;;;;;737.20;94.57;;;0.60;99.90;;;;;;4938725;28;20445;-78
2022/03/07 08:24:00;;;;;;;666.27;109.50;;;0.70;99.90;;;;;;4937404;29;20571;-78
2022/03/07 08:26:29;;;;;;;680.40;79.10;;;0.70;99.90;;;;;;4937715;29;20471;-77
2022/03/07 08:28:57;;;;;;;767.47;107.77;;;0.80;99.90;;;;;;4940249;28;20451;-76
2022/03/07 08:31:26;;;;;;;620.50;98.23;;;0.80;99.90;;;;;;4954357;29;20458;-77
2022/03/07 08:33:54;;;;;;;640.53;53.70;;;0.90;99.90;;;;;;4953889;28;20471;-77
2022/03/07 08:36:23;;;;;;;646.60;53.67;;;1.00;99.90;;;;;;4954114;28;20430;-77
2022/03/07 08:38:51;;;;;;;681.83;87.23;;;1.00;99.90;;;;;;4952433;29;20470;-77
2022/03/07 08:41:21;;;;;;;616.03;62.03;;;1.00;99.90;;;;;;4950415;29;20507;-77
2022/03/07 08:43:51;;;;;;;651.53;65.57;;;1.10;99.90;;;;;;4951580;29;20473;-78
2022/03/07 08:46:20;;;;;;;705.53;89.60;;;1.10;99.90;;;;;;4956519;28;20498;-77
2022/03/07 08:48:49;;;;;;;461.93;47.70;;;1.20;99.90;;;;;;4962864;28;20431;-77
2022/03/07 08:51:17;;;;;;;954.17;97.67;;;1.20;99.90;;;;;;4962280;28;20443;-77
2022/03/07 08:53:46;;;;;;;853.07;62.17;;;1.30;99.90;;;;;;4956617;28;20558;-77
2022/03/07 08:56:15;;;;;;;770.33;99.17;;;1.30;99.90;;;;;;4937341;29;20601;-77
2022/03/07 08:59:00;;;;;;;779.83;86.50;;;1.40;99.90;;;;;;4939283;29;20780;-78
2022/03/07 09:01:28;;;;;;;873.63;58.50;;;1.50;99.90;;;;;;4937267;29;20551;-78
2022/03/07 09:03:57;;;;;;;1943.97;165.37;;;1.50;99.90;;;;;;4936649;29;20515;-78
2022/03/07 09:06:26;;;;;;;767.87;59.90;;;1.60;99.90;;;;;;4936629;29;20473;-78
2022/03/07 09:08:54;;;;;;;681.17;89.77;;;1.60;99.90;;;;;;4938109;29;20449;-78
2022/03/07 09:11:41;;;;;;;1788.90;718.53;;;1.70;99.90;;;;;;4936678;29;20457;-77
2022/03/07 09:14:11;;;;;;;957.83;93.33;;;1.70;99.90;;;;;;4936471;29;20483;-78
2022/03/07 09:16:40;;;;;;;1999.90;999.90;;;1.80;99.90;;;;;;4936991;29;20448;-77
2022/03/07 09:19:09;;;;;;;1999.90;999.90;;;2.00;99.90;;;;;;4937505;29;20510;-78
2022/03/07 09:21:37;;;;;;;1442.87;212.43;;;2.10;99.90;;;;;;4936309;29;20462;-77
2022/03/07 09:24:07;;;;;;;1999.90;999.90;;;2.20;99.90;;;;;;4936012;29;21004;-78
2022/03/07 09:26:35;;;;;;;1999.90;999.90;;;2.40;99.90;;;;;;4935894;29;20478;-78
2022/03/07 09:29:04;;;;;;;1999.90;999.90;;;2.60;99.90;;;;;;4937144;29;20490;-78
2022/03/07 09:31:34;;;;;;;1999.90;999.90;;;2.70;99.90;;;;;;4936014;28;20542;-77
2022/03/07 09:34:02;;;;;;;1999.90;999.90;;;2.70;99.90;;;;;;4935668;29;20580;-78
2022/03/07 09:36:31;;;;;;;1999.90;770.93;;;2.80;99.90;;;;;;4937058;29;20916;-77
2022/03/07 09:38:59;;;;;;;1999.90;797.43;;;2.90;99.90;;;;;;4935858;28;20870;-78
2022/03/07 09:41:27;;;;;;;1999.90;385.53;;;2.90;99.90;;;;;;4935604;29;20463;-77
2022/03/07 09:43:56;;;;;;;1999.90;631.47;;;2.80;99.90;;;;;;4935631;29;20474;-77
2022/03/07 09:46:25;;;;;;;1999.90;788.30;;;2.80;99.90;;;;;;4935471;29;21015;-77
2022/03/07 09:48:55;;;;;;;1999.90;443.87;;;2.90;99.90;;;;;;4935756;28;20512;-77
2022/03/07 09:51:23;;;;;;;1999.90;610.70;;;2.90;99.90;;;;;;4937313;28;20911;-78
2022/03/07 09:53:52;;;;;;;1999.90;384.70;;;2.90;99.90;;;;;;4935551;29;20546;-77
2022/03/07 09:56:20;;;;;;;1999.90;807.20;;;2.90;99.90;;;;;;4937256;29;20451;-77
2022/03/07 09:58:48;;;;;;;1999.90;774.60;;;3.00;99.90;;;;;;4935539;29;20453;-77
2022/03/07 10:01:19;;;;;;;1999.90;779.43;;;3.00;99.90;;;;;;4935456;29;20510;-77
2022/03/07 10:03:53;;;;;;;1999.90;345.37;;;3.10;99.90;;;;;;4936908;29;20478;-77
2022/03/07 10:06:24;;;;;;;1999.90;830.57;;;3.10;99.90;;;;;;4935419;28;21007;-77
2022/03/07 10:08:53;;;;;;;1999.90;385.10;;;3.20;99.90;;;;;;4936520;29;20917;-77
2022/03/07 10:11:22;;;;;;;1999.90;452.53;;;3.20;99.90;;;;;;4935304;29;20459;-77
2022/03/07 10:13:51;;;;;;;1999.90;467.93;;;3.20;99.90;;;;;;4935172;28;20908;-78
2022/03/07 10:16:20;;;;;;;1999.90;476.93;;;3.30;99.90;;;;;;4936543;28;20482;-78
2022/03/07 10:18:51;;;;;;;1999.90;454.47;;;3.30;99.90;;;;;;4935192;29;20538;-77
2022/03/07 10:21:26;;;;;;;1999.90;631.20;;;3.40;99.90;;;;;;4934946;29;20510;-77
2022/03/07 10:23:56;;;;;;;1999.90;554.40;;;3.40;99.90;;;;;;4935166;28;20470;-77
2022/03/07 10:26:25;;;;;;;1999.90;541.00;;;3.50;99.90;;;;;;4936820;29;20464;-77
2022/03/07 10:28:55;;;;;;;1999.90;481.80;;;3.50;99.90;;;;;;4935168;29;20953;-77
2022/03/07 10:31:47;;;;;;;1999.90;558.43;;;3.40;99.90;;;;;;4935114;29;20498;-77
2022/03/07 10:34:16;;;;;;;1999.90;569.17;;;3.50;99.90;;;;;;4935079;28;20522;-77
2022/03/07 10:36:47;;;;;;;1999.90;467.60;;;3.60;99.90;;;;;;4936330;28;20486;-77
2022/03/07 10:39:23;;;;;;;1999.90;629.93;;;3.60;99.90;;;;;;4935061;28;20501;-77
2022/03/07 10:41:52;;;;;;;1999.90;525.70;;;3.70;99.90;;;;;;4934548;29;20453;-77
2022/03/07 10:44:31;;;;;;;1999.90;467.23;;;3.70;99.90;;;;;;4936138;29;20604;-77
2022/03/07 10:47:07;;;;;;;1999.90;396.43;;;3.80;99.90;;;;;;4936666;29;20463;-77
2022/03/07 10:49:35;;;;;;;1999.90;402.83;;;3.80;99.90;;;;;;4934945;29;20452;-77
2022/03/07 10:52:06;;;;;;;1999.90;284.67;;;3.90;99.90;;;;;;4934940;28;20463;-77
2022/03/07 10:54:38;;;;;;;1999.90;269.37;;;3.90;99.90;;;;;;4936290;29;20523;-77
2022/03/07 10:57:09;;;;;;;1999.90;306.33;;;3.90;99.90;;;;;;4934874;28;20466;-77
2022/03/07 10:59:38;;;;;;;1999.90;232.87;;;4.00;99.90;;;;;;4934851;28;20455;-77
2022/03/07 11:02:09;;;;;;;1699.87;217.40;;;4.10;99.90;;;;;;4934904;29;20494;-77
2022/03/07 11:04:39;;;;;;;1786.80;237.90;;;4.10;99.90;;;;;;4934944;29;20510;-76
2022/03/07 11:07:09;;;;;;;1763.77;226.30;;;4.20;99.90;;;;;;4934665;29;20471;-77
2022/03/07 11:09:38;;;;;;;1999.90;269.13;;;4.20;99.90;;;;;;4936208;28;20438;-77
2022/03/07 11:12:11;;;;;;;1873.27;259.97;;;4.30;99.90;;;;;;4934723;29;20550;-77
2022/03/07 11:14:41;;;;;;;1962.23;257.93;;;4.30;99.90;;;;;;4934755;29;20503;-77
2022/03/07 11:17:14;;;;;;;1493.50;216.77;;;4.40;99.90;;;;;;4934622;29;21052;-77
2022/03/07 11:19:42;;;;;;;1975.23;223.67;;;4.40;99.90;;;;;;4934985;29;20915;-77
2022/03/07 11:22:12;;;;;;;1999.90;281.77;;;4.40;99.90;;;;;;4935908;29;20451;-77
2022/03/07 11:24:41;;;;;;;1993.33;247.63;;;4.50;99.90;;;;;;4934685;28;20471;-77
2022/03/07 11:27:10;;;;;;;1999.90;299.63;;;4.50;99.90;;;;;;4934503;29;20518;-77
2022/03/07 11:29:40;;;;;;;1924.03;264.43;;;4.60;99.90;;;;;;4934528;29;20454;-77
2022/03/07 11:32:11;;;;;;;1935.33;271.13;;;4.60;99.90;;;;;;4934833;29;20470;-77
2022/03/07 11:34:39;;;;;;;1931.07;294.43;;;4.70;99.90;;;;;;4934304;28;20471;-77
2022/03/07 11:37:18;;;;;;;1999.90;379.87;;;4.70;99.90;;;;;;4934723;28;20531;-77
2022/03/07 11:39:47;;;;;;;1902.37;285.63;;;4.80;99.90;;;;;;4934596;29;20501;-78
2022/03/07 11:42:17;;;;;;;1999.90;600.90;;;4.90;99.90;;;;;;4936007;29;20477;-77
2022/03/07 11:44:47;;;;;;;1999.90;520.07;;;4.90;99.90;;;;;;4934393;29;20490;-77
2022/03/07 11:47:18;;;;;;;1999.90;384.80;;;4.90;99.90;;;;;;4935825;28;20558;-77
2022/03/07 11:49:47;;;;;;;1999.90;429.33;;;5.00;99.90;;;;;;4934244;29;20463;-77
2022/03/07 11:52:18;;;;;;;1999.90;522.43;;;5.00;99.90;;;;;;4934332;29;20459;-77
2022/03/07 11:54:52;;;;;;;1999.90;709.60;;;5.00;99.90;;;;;;4937088;29;20467;-78
2022/03/07 11:57:33;;;;;;;1999.90;505.67;;;5.10;99.90;;;;;;4937760;28;20448;-77
2022/03/07 12:00:12;;;;;;;1999.90;541.30;;;5.10;99.90;;;;;;4937600;29;20458;-77
2022/03/07 12:02:42;;;;;;;1999.90;421.07;;;5.20;99.90;;;;;;4938683;29;20427;-77
2022/03/07 12:05:21;;;;;;;1999.90;401.93;;;5.20;99.90;;;;;;4937441;29;20961;-78
2022/03/07 12:07:51;;;;;;;1999.90;618.40;;;5.30;99.90;;;;;;4937557;29;20473;-77
2022/03/07 12:10:20;;;;;;;1999.90;819.63;;;5.40;99.90;;;;;;4939019;29;20436;-77
2022/03/07 12:12:48;;;;;;;1999.90;999.90;;;5.40;99.90;;;;;;4937418;29;20483;-77
2022/03/07 12:15:44;;;;;;;1999.90;862.53;;;5.40;99.90;;;;;;4937472;29;20443;-77
2022/03/07 12:18:13;;;;;;;1999.90;999.90;;;5.50;99.90;;;;;;4937310;28;20944;-77
2022/03/07 12:20:50;;;;;;;1999.90;981.93;;;5.50;99.90;;;;;;4938521;29;20491;-77
2022/03/07 12:23:21;;;;;;;1999.90;991.50;;;5.60;99.90;;;;;;4937638;29;20483;-78
2022/03/07 12:25:59;;;;;;;1999.90;991.63;;;5.60;99.90;;;;;;4937174;29;20448;-78
2022/03/07 12:28:30;;;;;;;1999.90;826.80;;;5.70;99.90;;;;;;4937154;28;20482;-78